Time;durP1;ratioP1;P1;durP2;ratioP2;P2;SDS_P1;SDS_P2;PMS_P1;PMS_P2;Temp;Humidity;BMP_temperature;BMP_pressure;BME280_temperature;BME280_humidity;BME280_pressure;Samples;Min_cycle;Max_cycle;Signal;HPM_P1;HPM_P2
2022/09/24 00:02:03;;;;;;;12.27;7.85;;;12.50;99.90;;;;;;4994035;28;20471;-46
2022/09/24 00:04:30;;;;;;;10.52;8.15;;;12.50;99.90;;;;;;4994244;28;20018;-45
2022/09/24 00:06:55;;;;;;;15.25;8.43;;;12.40;99.90;;;;;;4994237;28;20018;-44
2022/09/24 00:09:21;;;;;;;13.10;7.97;;;12.40;99.90;;;;;;4993969;28;20508;-45
2022/09/24 00:11:48;;;;;;;13.30;7.47;;;12.40;99.90;;;;;;4994166;28;20022;-46
2022/09/24 00:14:15;;;;;;;9.02;6.55;;;12.40;99.90;;;;;;4993835;28;20030;-45
2022/09/24 00:16:42;;;;;;;9.20;7.20;;;12.40;99.90;;;;;;4993231;28;20130;-50
2022/09/24 00:19:09;;;;;;;9.65;7.53;;;12.40;99.90;;;;;;4994094;28;20247;-44
2022/09/24 00:21:36;;;;;;;11.00;6.68;;;12.40;99.90;;;;;;4993813;28;20026;-44
2022/09/24 00:26:48;;;;;;;14.57;6.95;;;12.40;99.90;;;;;;4993475;28;20022;-41
2022/09/24 00:27:01;;;;;;;11.77;6.75;;;12.40;99.90;;;;;;4993662;28;20026;-44
2022/09/24 00:29:27;;;;;;;8.52;6.82;;;12.30;99.90;;;;;;4993608;28;20045;-47
2022/09/24 00:31:53;;;;;;;13.23;8.18;;;12.30;99.90;;;;;;4993379;28;20030;-43
2022/09/24 00:34:20;;;;;;;11.60;6.57;;;12.30;99.90;;;;;;4993217;28;20023;-45
2022/09/24 00:36:46;;;;;;;10.40;6.35;;;12.30;99.90;;;;;;4993431;28;20022;-45
2022/09/24 00:39:12;;;;;;;9.25;6.78;;;12.20;99.90;;;;;;4994154;28;20033;-43
2022/09/24 00:41:38;;;;;;;11.55;7.05;;;12.20;99.90;;;;;;4993498;28;20030;-44
2022/09/24 00:44:41;;;;;;;9.35;7.15;;;12.20;99.90;;;;;;4991915;28;20030;-42
2022/09/24 00:47:24;;;;;;;7.25;6.45;;;12.10;99.90;;;;;;4993351;28;20030;-44
2022/09/24 00:49:50;;;;;;;9.57;6.65;;;12.00;99.90;;;;;;4993217;28;20092;-45
2022/09/24 00:52:18;;;;;;;10.57;7.43;;;12.00;99.90;;;;;;4993051;28;20026;-44
2022/09/24 00:54:44;;;;;;;12.65;6.95;;;11.90;99.90;;;;;;4993307;28;20394;-46
2022/09/24 00:57:10;;;;;;;11.27;7.25;;;12.00;99.90;;;;;;4993223;28;20022;-46
2022/09/24 00:59:36;;;;;;;9.50;7.22;;;11.90;99.90;;;;;;4992825;28;20398;-49
2022/09/24 01:02:03;;;;;;;11.10;7.53;;;11.90;99.90;;;;;;4992804;28;20046;-46
2022/09/24 01:04:29;;;;;;;11.27;7.18;;;11.90;99.90;;;;;;4992776;28;20030;-45
2022/09/24 01:06:55;;;;;;;11.77;8.38;;;11.90;99.90;;;;;;4992629;28;20414;-45
2022/09/24 01:09:23;;;;;;;10.98;7.80;;;11.90;99.90;;;;;;4992679;28;20416;-51
2022/09/24 01:12:05;;;;;;;10.70;7.18;;;11.90;99.90;;;;;;4992889;28;20084;-47
2022/09/24 01:15:04;;;;;;;13.43;8.00;;;11.80;99.90;;;;;;4992731;28;20026;-46
2022/09/24 01:17:48;;;;;;;10.35;7.57;;;11.80;99.90;;;;;;4992551;28;20378;-49
2022/09/24 01:20:46;;;;;;;12.90;7.47;;;11.80;99.90;;;;;;4992498;28;20019;-44
2022/09/24 01:23:22;;;;;;;9.73;8.18;;;11.80;99.90;;;;;;4992336;28;20081;-43
2022/09/24 01:26:08;;;;;;;9.73;7.53;;;11.70;99.90;;;;;;4992439;28;20037;-46
2022/09/24 01:28:53;;;;;;;9.32;7.60;;;11.70;99.90;;;;;;4992155;28;20023;-43
2022/09/24 01:31:40;;;;;;;8.50;7.53;;;11.60;99.90;;;;;;4992523;28;20037;-44
2022/09/24 01:34:09;;;;;;;10.02;7.10;;;11.60;99.90;;;;;;4992117;28;20395;-45
2022/09/24 01:36:37;;;;;;;13.32;7.18;;;11.40;99.90;;;;;;4992415;28;20498;-47
2022/09/24 01:39:05;;;;;;;11.15;6.50;;;11.40;99.90;;;;;;4992320;28;20037;-45
2022/09/24 01:41:33;;;;;;;10.93;7.90;;;11.30;99.90;;;;;;4992462;28;20037;-46
2022/09/24 01:44:00;;;;;;;20.70;8.00;;;11.30;99.90;;;;;;4991995;28;20026;-46
2022/09/24 01:46:26;;;;;;;10.65;7.75;;;11.20;99.90;;;;;;4992292;28;20022;-47
2022/09/24 01:48:52;;;;;;;8.90;7.80;;;11.30;99.90;;;;;;4991644;28;20390;-50
2022/09/24 01:51:33;;;;;;;15.75;8.63;;;11.20;99.90;;;;;;4992229;28;20029;-45
2022/09/24 01:54:06;;;;;;;15.05;8.45;;;11.20;99.90;;;;;;4991983;28;20173;-45
2022/09/24 01:56:43;;;;;;;8.82;7.43;;;11.20;99.90;;;;;;4992150;28;20486;-47
2022/09/24 01:59:20;;;;;;;9.50;6.97;;;11.10;99.90;;;;;;4992325;28;20053;-48
2022/09/24 02:01:57;;;;;;;10.10;7.57;;;11.10;99.90;;;;;;4992091;28;20514;-47
2022/09/24 02:04:27;;;;;;;12.15;7.70;;;11.10;99.90;;;;;;4990788;28;20038;-48
2022/09/24 02:06:56;;;;;;;11.15;7.93;;;11.00;99.90;;;;;;4992136;28;20549;-47
2022/09/24 02:09:40;;;;;;;14.50;8.35;;;10.90;99.90;;;;;;4991940;28;20076;-44
2022/09/24 02:12:15;;;;;;;9.63;7.82;;;10.90;99.90;;;;;;4992160;28;20066;-48
2022/09/24 02:14:45;;;;;;;;;;;10.90;99.90;;;;;;4992460;28;20068;-50
2022/09/24 02:17:12;;;;;;;8.75;7.43;;;10.90;99.90;;;;;;4991825;28;20008;-53
2022/09/24 02:19:39;;;;;;;12.98;8.40;;;10.90;99.90;;;;;;4991675;28;20097;-44
2022/09/24 02:22:08;;;;;;;12.27;7.75;;;10.80;99.90;;;;;;4991565;28;20027;-43
2022/09/24 02:24:41;;;;;;;14.15;7.63;;;10.80;99.90;;;;;;4991844;28;20026;-46
2022/09/24 02:27:07;;;;;;;13.20;7.65;;;10.80;99.90;;;;;;4991920;28;20152;-49
2022/09/24 02:29:32;;;;;;;10.57;8.35;;;10.80;99.90;;;;;;4991754;28;20030;-44
2022/09/24 02:31:59;;;;;;;14.30;7.20;;;10.80;99.90;;;;;;4991605;28;20030;-44
2022/09/24 02:34:33;;;;;;;11.40;6.93;;;10.70;99.90;;;;;;4991985;28;20022;-45
2022/09/24 02:37:06;;;;;;;9.27;6.93;;;10.70;99.90;;;;;;4991914;28;20038;-46
2022/09/24 02:39:31;;;;;;;9.27;6.47;;;10.70;99.90;;;;;;4993015;28;20078;-43
2022/09/24 02:41:57;;;;;;;8.25;7.38;;;10.70;99.90;;;;;;4995443;28;20031;-44
2022/09/24 02:44:23;;;;;;;7.65;6.88;;;10.80;99.90;;;;;;4995605;28;20451;-49
2022/09/24 02:46:49;;;;;;;8.48;7.05;;;10.70;99.90;;;;;;4995705;28;20039;-47
2022/09/24 02:49:15;;;;;;;11.70;8.07;;;10.60;99.90;;;;;;4994992;28;20486;-48
2022/09/24 02:51:41;;;;;;;8.05;6.72;;;10.50;99.90;;;;;;4995409;28;20030;-46
2022/09/24 02:54:08;;;;;;;7.38;6.53;;;10.50;99.90;;;;;;4993903;28;20030;-45
2022/09/24 02:56:34;;;;;;;12.88;7.00;;;10.50;99.90;;;;;;4995189;28;20504;-47
2022/09/24 02:59:01;;;;;;;11.05;6.88;;;10.50;99.90;;;;;;4995114;28;20022;-45
2022/09/24 03:01:26;;;;;;;10.55;6.50;;;10.50;99.90;;;;;;4995707;28;20109;-44
2022/09/24 03:03:53;;;;;;;7.63;6.40;;;10.40;99.90;;;;;;4994913;28;20137;-46
2022/09/24 03:06:18;;;;;;;7.93;6.47;;;10.40;99.90;;;;;;4995191;28;20030;-47
2022/09/24 03:08:44;;;;;;;7.03;6.25;;;10.30;99.90;;;;;;4994863;28;20450;-46
2022/09/24 03:11:10;;;;;;;13.63;6.80;;;10.30;99.90;;;;;;4994998;28;20027;-45
2022/09/24 03:13:36;;;;;;;17.60;7.25;;;10.40;99.90;;;;;;4994717;28;20104;-47
2022/09/24 03:16:03;;;;;;;13.35;7.68;;;10.40;99.90;;;;;;4994928;28;20042;-46
2022/09/24 03:18:28;;;;;;;12.40;6.40;;;10.40;99.90;;;;;;4994800;28;20027;-45
2022/09/24 03:21:07;;;;;;;8.00;7.18;;;10.40;99.90;;;;;;4994878;28;20101;-52
2022/09/24 03:23:33;;;;;;;17.48;8.63;;;10.40;99.90;;;;;;4994467;28;20030;-49
2022/09/24 03:25:58;;;;;;;11.85;7.78;;;10.40;99.90;;;;;;4994675;28;20044;-51
2022/09/24 03:28:24;;;;;;;8.30;6.70;;;10.40;99.90;;;;;;4994572;28;20109;-47
2022/09/24 03:30:58;;;;;;;6.78;5.90;;;10.40;99.90;;;;;;4994574;28;20058;-48
2022/09/24 03:33:41;;;;;;;6.85;5.60;;;10.40;99.90;;;;;;4994453;28;20022;-46
2022/09/24 03:36:14;;;;;;;11.00;6.18;;;10.30;99.90;;;;;;4994415;28;20112;-47
2022/09/24 03:38:41;;;;;;;8.15;6.57;;;10.30;99.90;;;;;;4994317;28;20070;-44
2022/09/24 03:41:08;;;;;;;8.07;7.28;;;10.30;99.90;;;;;;4994220;28;20046;-45
2022/09/24 03:43:34;;;;;;;13.82;7.53;;;10.30;99.90;;;;;;4992633;28;20054;-50
2022/09/24 03:46:00;;;;;;;10.70;6.78;;;10.30;99.90;;;;;;4994272;28;20018;-44
2022/09/24 03:48:26;;;;;;;15.63;6.43;;;10.20;99.90;;;;;;4993556;28;20031;-47
2022/09/24 03:50:52;;;;;;;10.55;6.82;;;10.10;99.90;;;;;;4994324;28;20027;-45
2022/09/24 03:53:19;;;;;;;8.38;5.85;;;10.10;99.90;;;;;;4994121;28;20092;-45
2022/09/24 03:55:47;;;;;;;8.35;7.10;;;10.10;99.90;;;;;;4994320;28;20053;-47
2022/09/24 03:58:14;;;;;;;8.88;6.40;;;10.20;99.90;;;;;;4994186;28;20030;-43
2022/09/24 04:00:40;;;;;;;9.15;6.70;;;10.20;99.90;;;;;;4993920;28;20027;-45
2022/09/24 04:03:06;;;;;;;7.45;5.88;;;10.20;99.90;;;;;;4993618;28;20022;-45
2022/09/24 04:05:31;;;;;;;11.07;6.72;;;10.20;99.90;;;;;;4994010;28;20025;-44
2022/09/24 04:07:58;;;;;;;9.48;6.68;;;10.20;99.90;;;;;;4993683;28;20058;-44
2022/09/24 04:10:24;;;;;;;10.43;7.32;;;10.20;99.90;;;;;;4993898;28;20030;-41
2022/09/24 04:12:51;;;;;;;8.20;6.07;;;10.20;99.90;;;;;;4993454;28;20038;-44
2022/09/24 04:15:17;;;;;;;10.35;6.35;;;10.20;99.90;;;;;;4993637;28;20040;-41
2022/09/24 04:17:51;;;;;;;9.40;6.28;;;10.20;99.90;;;;;;4993777;28;20027;-47
2022/09/24 04:20:20;;;;;;;8.90;6.07;;;10.10;99.90;;;;;;4993714;28;20034;-46
2022/09/24 04:22:46;;;;;;;7.38;5.05;;;10.10;99.90;;;;;;4992061;28;20029;-46
2022/09/24 04:25:11;;;;;;;9.65;5.55;;;10.20;99.90;;;;;;4992760;28;20022;-46
2022/09/24 04:27:38;;;;;;;10.25;5.88;;;10.20;99.90;;;;;;4994065;28;20127;-46
2022/09/24 04:30:04;;;;;;;7.50;5.68;;;10.10;99.90;;;;;;4993327;28;20414;-45
2022/09/24 04:32:29;;;;;;;5.78;5.18;;;10.10;99.90;;;;;;4993256;28;20258;-46
2022/09/24 04:34:55;;;;;;;9.95;6.65;;;10.10;99.90;;;;;;4993440;28;20026;-45
2022/09/24 04:37:20;;;;;;;7.10;5.90;;;10.10;99.90;;;;;;4993428;28;20030;-47
2022/09/24 04:39:46;;;;;;;14.25;6.30;;;10.10;99.90;;;;;;4993390;28;20110;-46
2022/09/24 04:42:15;;;;;;;11.35;5.78;;;10.20;99.90;;;;;;4993131;28;20362;-47
2022/09/24 04:44:45;;;;;;;7.93;6.03;;;10.10;99.90;;;;;;4991794;28;20141;-44
2022/09/24 04:47:12;;;;;;;13.23;5.90;;;10.10;99.90;;;;;;4993506;28;20019;-45
2022/09/24 04:49:37;;;;;;;6.82;5.40;;;10.10;99.90;;;;;;4992634;28;20027;-43
2022/09/24 04:52:04;;;;;;;10.43;5.43;;;10.20;99.90;;;;;;4992886;28;20482;-45
2022/09/24 04:54:29;;;;;;;9.18;5.90;;;10.20;99.90;;;;;;4993603;28;20069;-46
2022/09/24 04:56:55;;;;;;;6.35;5.57;;;10.10;99.90;;;;;;4992164;28;20111;-49
2022/09/24 04:59:21;;;;;;;7.93;6.00;;;10.00;99.90;;;;;;4993133;28;20375;-44
2022/09/24 05:01:47;;;;;;;14.20;6.30;;;10.00;99.90;;;;;;4992578;28;20040;-44
2022/09/24 05:04:13;;;;;;;14.45;7.35;;;9.90;99.90;;;;;;4992722;28;20030;-44
2022/09/24 05:06:38;;;;;;;8.00;6.35;;;9.90;99.90;;;;;;4993005;28;20043;-45
2022/09/24 05:09:04;;;;;;;8.50;6.68;;;9.90;99.90;;;;;;5015154;22;20082;-45
2022/09/24 05:11:29;;;;;;;9.50;6.93;;;9.90;99.90;;;;;;4992830;28;20022;-43
2022/09/24 05:13:55;;;;;;;13.05;6.43;;;9.90;99.90;;;;;;4992032;28;20033;-43
2022/09/24 05:16:21;;;;;;;7.72;6.63;;;9.80;99.90;;;;;;4992926;28;20029;-41
2022/09/24 05:18:46;;;;;;;12.20;6.72;;;9.90;99.90;;;;;;4992698;28;20024;-45
2022/09/24 05:21:12;;;;;;;18.85;7.43;;;9.90;99.90;;;;;;4992691;28;20037;-51
2022/09/24 05:23:37;;;;;;;13.30;5.80;;;9.90;99.90;;;;;;4992388;28;20041;-39
2022/09/24 05:29:07;;;;;;;7.80;6.03;;;9.90;99.90;;;;;;4970570;28;20343;-44
2022/09/24 05:31:32;;;;;;;8.65;6.05;;;9.90;99.90;;;;;;4970826;28;20037;-44
2022/09/24 05:33:58;;;;;;;10.73;5.93;;;9.90;99.90;;;;;;4980402;28;20039;-43
2022/09/24 05:36:25;;;;;;;15.27;6.55;;;10.00;99.90;;;;;;4992380;28;20308;-47
2022/09/24 05:38:54;;;;;;;8.20;5.93;;;10.00;99.90;;;;;;4992274;28;20018;-47
2022/09/24 05:41:19;;;;;;;11.40;6.28;;;10.10;99.90;;;;;;4992408;28;20080;-45
2022/09/24 05:43:45;;;;;;;11.90;7.43;;;10.20;99.90;;;;;;4992011;28;20034;-48
2022/09/24 05:46:10;;;;;;;12.95;6.50;;;10.20;99.90;;;;;;4992279;28;20022;-40
2022/09/24 05:48:36;;;;;;;9.10;6.75;;;10.30;99.90;;;;;;4991453;28;20105;-43
2022/09/24 05:51:02;;;;;;;8.63;5.95;;;10.40;99.90;;;;;;4992188;28;20062;-47
2022/09/24 05:53:27;;;;;;;10.90;6.55;;;10.40;99.90;;;;;;4992034;28;20110;-44
2022/09/24 05:55:53;;;;;;;7.07;5.97;;;10.40;99.90;;;;;;4992166;28;20096;-44
2022/09/24 05:58:19;;;;;;;9.70;5.63;;;10.40;99.90;;;;;;4992534;28;20030;-45
2022/09/24 06:00:44;;;;;;;8.43;5.68;;;10.50;99.90;;;;;;4992201;28;20037;-47
2022/09/24 06:03:12;;;;;;;8.10;6.20;;;10.50;99.90;;;;;;4991603;28;20030;-50
2022/09/24 06:05:42;;;;;;;13.38;6.82;;;10.60;99.90;;;;;;4992010;28;20026;-49
2022/09/24 06:08:07;;;;;;;6.95;5.88;;;10.60;99.90;;;;;;4991871;28;20022;-43
2022/09/24 06:10:33;;;;;;;11.15;6.05;;;10.60;99.90;;;;;;4991697;28;20036;-43
2022/09/24 06:12:58;;;;;;;7.93;5.88;;;10.70;99.90;;;;;;4991613;28;20509;-41
2022/09/24 06:15:26;;;;;;;7.63;6.25;;;10.70;99.90;;;;;;4994613;28;20045;-47
2022/09/24 06:17:53;;;;;;;10.75;6.00;;;10.80;99.90;;;;;;4995962;28;20088;-45
2022/09/24 06:20:19;;;;;;;6.80;6.13;;;10.80;99.90;;;;;;4995743;28;20023;-40
2022/09/24 06:22:44;;;;;;;12.23;5.97;;;10.80;99.90;;;;;;4995550;28;20122;-42
2022/09/24 06:25:10;;;;;;;6.20;5.60;;;10.90;99.90;;;;;;4995868;28;20348;-44
2022/09/24 06:27:35;;;;;;;12.40;6.82;;;10.90;99.90;;;;;;4996008;28;20022;-46
2022/09/24 06:30:01;;;;;;;10.18;6.70;;;11.00;99.90;;;;;;4995517;28;20379;-44
2022/09/24 06:32:26;;;;;;;7.97;6.93;;;11.00;99.90;;;;;;4995706;28;20053;-44
2022/09/24 06:34:52;;;;;;;9.70;6.03;;;11.10;99.90;;;;;;4995808;28;20026;-44
2022/09/24 06:37:17;;;;;;;9.93;6.57;;;11.20;99.90;;;;;;4995687;28;20022;-44
2022/09/24 06:39:43;;;;;;;12.02;6.80;;;11.20;99.90;;;;;;4994587;28;20022;-42
2022/09/24 06:42:08;;;;;;;9.90;6.50;;;11.30;99.90;;;;;;4995598;28;20106;-43
2022/09/24 06:44:34;;;;;;;8.07;6.88;;;11.30;99.90;;;;;;4995762;28;20070;-44
2022/09/24 06:47:00;;;;;;;11.60;7.75;;;11.30;99.90;;;;;;4996197;28;20376;-43
2022/09/24 06:49:26;;;;;;;9.63;7.00;;;11.60;99.90;;;;;;4993743;28;20035;-43
2022/09/24 06:51:54;;;;;;;11.95;7.45;;;12.00;99.90;;;;;;4995408;28;20077;-41
2022/09/24 06:54:21;;;;;;;10.98;7.95;;;12.20;99.90;;;;;;4995399;28;20509;-42
2022/09/24 06:56:47;;;;;;;14.95;7.22;;;12.40;99.90;;;;;;4995383;28;20088;-44
2022/09/24 06:59:12;;;;;;;8.65;7.50;;;12.50;99.90;;;;;;4995145;28;20034;-45
2022/09/24 07:01:37;;;;;;;8.95;7.22;;;12.50;99.90;;;;;;4995423;28;20084;-41
2022/09/24 07:04:03;;;;;;;10.52;6.68;;;12.30;99.90;;;;;;4994845;28;20037;-48
2022/09/24 07:07:28;;;;;;;8.77;7.40;;;12.30;99.90;;;;;;4995137;28;20483;-45
2022/09/24 07:09:14;;;;;;;8.48;7.68;;;12.40;99.90;;;;;;4994622;28;20049;-45
2022/09/24 07:11:40;;;;;;;10.63;6.47;;;12.70;99.90;;;;;;4994979;28;20027;-41
2022/09/24 07:14:06;;;;;;;13.45;6.53;;;12.90;99.90;;;;;;4994765;28;20167;-47
2022/09/24 07:16:31;;;;;;;9.05;7.35;;;13.00;99.90;;;;;;4995087;28;20087;-45
2022/09/24 07:18:57;;;;;;;11.02;6.95;;;13.10;99.90;;;;;;4994852;28;20080;-44
2022/09/24 07:21:22;;;;;;;10.05;6.90;;;13.40;99.90;;;;;;4995000;28;20030;-45
2022/09/24 07:23:48;;;;;;;7.65;6.85;;;13.70;99.90;;;;;;4994558;28;20073;-48
2022/09/24 07:26:13;;;;;;;9.10;6.18;;;13.80;99.90;;;;;;4994921;28;20484;-43
2022/09/24 07:28:39;;;;;;;12.27;7.00;;;13.90;99.90;;;;;;4995224;28;20045;-44
2022/09/24 07:31:04;;;;;;;8.73;6.60;;;14.20;99.90;;;;;;4993619;28;20117;-42
2022/09/24 07:33:31;;;;;;;8.65;6.40;;;14.40;99.90;;;;;;4994450;28;20041;-43
2022/09/24 07:35:56;;;;;;;8.40;6.53;;;14.80;99.90;;;;;;4994942;28;20023;-46
2022/09/24 07:38:22;;;;;;;10.98;5.78;;;15.10;99.90;;;;;;4994622;28;20372;-43
2022/09/24 07:40:47;;;;;;;7.50;6.00;;;15.10;99.90;;;;;;4994483;28;20518;-45
2022/09/24 07:43:13;;;;;;;9.60;7.20;;;15.00;99.90;;;;;;4993352;28;20030;-48
2022/09/24 07:45:39;;;;;;;9.98;7.32;;;14.90;99.90;;;;;;4994666;28;20018;-39
2022/09/24 07:48:05;;;;;;;9.10;6.80;;;14.90;99.90;;;;;;4994477;28;20022;-45
2022/09/24 07:50:37;;;;;;;8.93;7.75;;;14.80;99.90;;;;;;4994688;28;20019;-43
2022/09/24 07:53:03;;;;;;;9.02;6.93;;;14.80;99.90;;;;;;4994560;28;20038;-40
2022/09/24 07:55:28;;;;;;;8.05;6.85;;;14.70;99.90;;;;;;4994665;28;20030;-45
2022/09/24 07:57:54;;;;;;;9.15;7.82;;;14.60;99.90;;;;;;4994757;28;20054;-48
2022/09/24 08:00:22;;;;;;;11.85;8.07;;;14.50;99.90;;;;;;4995578;28;20101;-44
2022/09/24 08:02:49;;;;;;;11.18;8.68;;;14.30;99.90;;;;;;4994894;28;20088;-44
2022/09/24 08:05:16;;;;;;;13.20;8.75;;;14.10;99.90;;;;;;4995879;28;20026;-48
2022/09/24 08:07:49;;;;;;;9.10;8.13;;;13.90;99.90;;;;;;4994485;28;20026;-41
2022/09/24 08:10:15;;;;;;;11.05;9.27;;;13.80;99.90;;;;;;4994165;28;20074;-47
2022/09/24 08:12:40;;;;;;;11.35;8.45;;;13.70;99.90;;;;;;4994291;28;20049;-43
2022/09/24 08:15:06;;;;;;;17.02;9.45;;;13.70;99.90;;;;;;4994499;28;20425;-48
2022/09/24 08:17:32;;;;;;;10.60;9.18;;;13.80;99.90;;;;;;4994388;28;20534;-44
2022/09/24 08:19:57;;;;;;;13.05;10.95;;;13.90;99.90;;;;;;4994214;28;20066;-49
2022/09/24 08:22:23;;;;;;;14.43;9.35;;;14.00;99.90;;;;;;4993910;28;20101;-49
2022/09/24 08:24:49;;;;;;;11.18;10.10;;;14.10;99.90;;;;;;4994026;28;20029;-52
2022/09/24 08:27:16;;;;;;;13.23;9.02;;;14.20;99.90;;;;;;4994070;28;20022;-44
2022/09/24 08:29:41;;;;;;;14.30;9.13;;;14.40;99.90;;;;;;4993854;28;20161;-46
2022/09/24 08:32:07;;;;;;;13.57;9.20;;;14.50;99.90;;;;;;4993667;28;20109;-43
2022/09/24 08:34:37;;;;;;;14.80;11.38;;;14.60;99.90;;;;;;4993750;28;20053;-42
2022/09/24 08:37:04;;;;;;;10.30;9.30;;;14.70;99.90;;;;;;4993218;28;20033;-45
2022/09/24 08:39:31;;;;;;;13.13;9.05;;;14.90;99.90;;;;;;4993482;28;20065;-44
2022/09/24 08:42:02;;;;;;;12.80;10.13;;;14.90;99.90;;;;;;4993422;28;20029;-39
2022/09/24 08:47:31;;;;;;;10.75;9.63;;;14.90;99.90;;;;;;4993726;28;20033;-44
2022/09/24 08:50:11;;;;;;;13.35;10.32;;;14.90;99.90;;;;;;4991898;28;20022;-49
2022/09/24 08:52:54;;;;;;;14.70;10.93;;;14.90;99.90;;;;;;4993307;28;20398;-46
2022/09/24 08:55:32;;;;;;;12.65;10.68;;;14.80;99.90;;;;;;4993305;28;20018;-41
2022/09/24 08:58:34;;;;;;;15.55;11.57;;;14.80;99.90;;;;;;4993407;28;20097;-45
2022/09/24 09:01:13;;;;;;;16.77;11.43;;;14.80;99.90;;;;;;4993267;28;20077;-45
2022/09/24 09:04:14;;;;;;;12.30;10.73;;;14.80;99.90;;;;;;4992541;28;20033;-50
2022/09/24 09:07:19;;;;;;;13.40;10.75;;;14.70;99.90;;;;;;4942389;28;20058;-46
2022/09/24 09:09:54;;;;;;;15.88;11.23;;;14.70;99.90;;;;;;4991676;28;20042;-44
2022/09/24 09:12:33;;;;;;;13.45;11.45;;;14.60;99.90;;;;;;4992691;28;20026;-45
2022/09/24 09:15:08;;;;;;;24.92;18.98;;;14.60;99.90;;;;;;4992938;28;20482;-45
2022/09/24 09:17:53;;;;;;;21.05;13.95;;;14.60;99.90;;;;;;4992885;28;20034;-47
2022/09/24 09:20:27;;;;;;;11.60;10.40;;;14.70;99.90;;;;;;4992766;28;20406;-40
2022/09/24 09:22:53;;;;;;;15.35;12.52;;;14.70;99.90;;;;;;4992546;28;20023;-45
2022/09/24 09:25:20;;;;;;;12.52;11.23;;;14.70;99.90;;;;;;4992916;28;20033;-47
2022/09/24 09:28:06;;;;;;;12.23;10.90;;;14.80;99.90;;;;;;4992616;28;20050;-46
2022/09/24 09:30:46;;;;;;;11.85;10.10;;;15.00;99.90;;;;;;4992614;28;20440;-46
2022/09/24 09:33:28;;;;;;;13.52;10.18;;;15.40;99.90;;;;;;4992544;28;20027;-46
2022/09/24 09:36:19;;;;;;;13.90;10.70;;;16.00;99.90;;;;;;4992515;28;20084;-41
2022/09/24 09:38:52;;;;;;;15.07;9.85;;;16.80;99.90;;;;;;4991002;28;20046;-44
2022/09/24 09:41:36;;;;;;;12.48;10.63;;;17.40;99.90;;;;;;4992446;28;20025;-45
2022/09/24 09:44:14;;;;;;;12.77;10.63;;;17.60;99.90;;;;;;4992146;28;20434;-46
2022/09/24 09:46:46;;;;;;;12.40;10.50;;;17.70;99.90;;;;;;4992416;28;20061;-47
2022/09/24 09:49:13;;;;;;;11.65;10.05;;;17.90;99.90;;;;;;4992147;28;20498;-45
2022/09/24 09:51:41;;;;;;;13.48;11.18;;;18.20;99.90;;;;;;4992633;28;20026;-45
2022/09/24 09:54:07;;;;;;;17.40;10.27;;;18.30;99.90;;;;;;4992093;28;20089;-50
2022/09/24 09:56:35;;;;;;;14.57;11.70;;;18.50;99.90;;;;;;4992310;28;20034;-46
2022/09/24 09:59:07;;;;;;;16.80;11.40;;;18.80;99.90;;;;;;4992074;28;20375;-45
2022/09/24 10:01:36;;;;;;;12.90;11.07;;;18.90;99.90;;;;;;4992192;28;20026;-48
2022/09/24 10:04:03;;;;;;;12.15;10.75;;;18.90;99.90;;;;;;4991777;28;20034;-46
2022/09/24 10:06:32;;;;;;;16.52;11.07;;;18.80;99.90;;;;;;4990977;28;20054;-46
2022/09/24 10:09:16;;;;;;;13.85;11.50;;;18.60;99.90;;;;;;4990869;28;20117;-44
2022/09/24 10:11:42;;;;;;;11.50;9.85;;;18.30;99.90;;;;;;4992156;28;20018;-41
2022/09/24 10:14:14;;;;;;;14.68;11.52;;;18.20;99.90;;;;;;4991867;28;20036;-45
2022/09/24 10:16:47;;;;;;;17.73;12.50;;;18.20;99.90;;;;;;4992085;28;20482;-48
2022/09/24 10:19:24;;;;;;;14.75;11.43;;;18.10;99.90;;;;;;4991842;28;20030;-50
2022/09/24 10:21:51;;;;;;;11.73;10.48;;;18.10;99.90;;;;;;4991860;28;20023;-43
2022/09/24 10:24:24;;;;;;;12.68;10.90;;;18.10;99.90;;;;;;4991802;28;20018;-48
2022/09/24 10:26:50;;;;;;;15.05;11.02;;;18.10;99.90;;;;;;4992105;28;20556;-45
2022/09/24 10:32:12;;;;;;;16.05;10.15;;;17.90;99.90;;;;;;4991621;28;20081;-44
2022/09/24 10:34:37;;;;;;;14.48;9.55;;;17.80;99.90;;;;;;4991804;28;20060;-46
2022/09/24 10:37:13;;;;;;;11.90;9.68;;;17.80;99.90;;;;;;4991813;28;20479;-44
2022/09/24 10:39:39;;;;;;;11.20;8.95;;;17.80;99.90;;;;;;4991963;28;20069;-43
2022/09/24 10:42:06;;;;;;;12.70;8.90;;;17.70;99.90;;;;;;4991652;28;20371;-45
2022/09/24 10:44:35;;;;;;;16.13;9.75;;;17.80;99.90;;;;;;4992291;28;20109;-50
2022/09/24 10:47:32;;;;;;;15.43;12.52;;;17.80;99.90;;;;;;4992092;28;20026;-45
2022/09/24 10:50:37;;;;;;;66.13;44.28;;;17.90;99.90;;;;;;4991622;28;20018;-40
2022/09/24 10:53:12;;;;;;;15.55;11.68;;;17.90;99.90;;;;;;4991745;28;20498;-44
2022/09/24 10:56:04;;;;;;;7.93;6.90;;;18.00;99.90;;;;;;4991997;28;20034;-47
2022/09/24 10:59:15;;;;;;;10.05;7.00;;;18.20;99.90;;;;;;4991776;28;20053;-47
2022/09/24 11:01:50;;;;;;;10.13;6.75;;;18.40;99.90;;;;;;4975766;28;20117;-45
2022/09/24 11:04:33;;;;;;;7.15;6.35;;;18.40;99.90;;;;;;4996077;28;20030;-45
2022/09/24 11:07:43;;;;;;;9.10;6.28;;;18.40;99.90;;;;;;4996355;28;20390;-45
2022/09/24 11:10:15;;;;;;;10.65;6.28;;;18.40;99.90;;;;;;5018754;22;20054;-45
2022/09/24 11:12:59;;;;;;;14.70;6.60;;;18.50;99.90;;;;;;4994747;28;20442;-45
2022/09/24 11:15:52;;;;;;;9.52;6.60;;;18.60;99.90;;;;;;4995366;28;20112;-43
2022/09/24 11:18:37;;;;;;;12.05;6.93;;;18.70;99.90;;;;;;4995063;28;20031;-45
2022/09/24 11:21:17;;;;;;;8.52;6.40;;;18.70;99.90;;;;;;4995126;28;20518;-45
2022/09/24 11:24:02;;;;;;;6.60;5.45;;;18.60;99.90;;;;;;4994835;28;20060;-45
2022/09/24 11:26:44;;;;;;;6.05;5.30;;;18.60;99.90;;;;;;4994785;28;20105;-44
2022/09/24 11:29:12;;;;;;;8.82;5.82;;;18.50;99.90;;;;;;4994454;28;20509;-45
2022/09/24 11:32:05;;;;;;;9.55;6.05;;;18.40;99.90;;;;;;4994772;28;20489;-45
2022/09/24 11:34:43;;;;;;;9.50;5.75;;;18.30;99.90;;;;;;4994521;28;20023;-51
2022/09/24 11:37:25;;;;;;;8.55;5.47;;;18.10;99.90;;;;;;4996620;28;20057;-46
2022/09/24 11:40:12;;;;;;;9.50;5.18;;;18.10;99.90;;;;;;4995460;28;20034;-44
2022/09/24 11:42:58;;;;;;;6.38;4.40;;;18.10;99.90;;;;;;4993975;28;20026;-44
2022/09/24 11:45:46;;;;;;;;;;;18.10;99.90;;;;;;4984087;28;20507;-44
2022/09/24 11:48:34;;;;;;;6.90;5.10;;;18.10;99.90;;;;;;4958332;28;19938;-46
2022/09/24 11:51:28;;;;;;;9.15;4.85;;;18.20;99.90;;;;;;4973284;28;20023;-49
2022/09/24 11:54:05;;;;;;;8.45;5.22;;;18.20;99.90;;;;;;4974090;28;20077;-44
2022/09/24 11:56:40;;;;;;;12.30;5.80;;;18.30;99.90;;;;;;4974534;28;20050;-45
2022/09/24 11:59:17;;;;;;;7.10;4.55;;;18.40;99.90;;;;;;4974809;28;20030;-44
2022/09/24 12:01:53;;;;;;;7.68;5.50;;;18.40;99.90;;;;;;4974642;28;20050;-45
2022/09/24 12:04:28;;;;;;;15.13;5.30;;;18.40;99.90;;;;;;4974638;28;20027;-45
2022/09/24 12:07:15;;;;;;;9.30;6.15;;;18.40;99.90;;;;;;4974848;28;20110;-44
2022/09/24 12:09:53;;;;;;;8.27;4.85;;;18.30;99.90;;;;;;4974245;28;20027;-44
2022/09/24 12:12:41;;;;;;;7.32;5.18;;;18.30;99.90;;;;;;4971774;28;20022;-49
2022/09/24 12:15:13;;;;;;;5.55;4.35;;;18.40;99.90;;;;;;4974244;28;20027;-47
2022/09/24 12:17:58;;;;;;;31.95;24.40;;;18.30;99.90;;;;;;4974536;28;20326;-44
2022/09/24 12:20:29;;;;;;;19.55;12.43;;;18.40;99.90;;;;;;4974693;28;20045;-46
2022/09/24 12:23:11;;;;;;;9.52;5.63;;;18.50;99.90;;;;;;4973829;28;20042;-45
2022/09/24 12:25:41;;;;;;;5.53;4.72;;;18.60;99.90;;;;;;4974373;28;20018;-47
2022/09/24 12:32:53;;;;;;;10.25;5.25;;;18.60;99.90;;;;;;4974271;28;20069;-44
2022/09/24 12:34:35;;;;;;;12.15;5.82;;;18.70;99.90;;;;;;4973710;28;20049;-45
2022/09/24 12:37:27;;;;;;;13.45;7.28;;;18.70;99.90;;;;;;4974206;28;20022;-48
2022/09/24 12:40:04;;;;;;;9.32;8.05;;;18.70;99.90;;;;;;4974386;28;20486;-45
2022/09/24 12:42:35;;;;;;;8.20;6.53;;;18.70;99.90;;;;;;4973875;28;20034;-46
2022/09/24 12:45:03;;;;;;;10.93;8.52;;;18.70;99.90;;;;;;4973883;28;20045;-42
2022/09/24 12:47:32;;;;;;;14.05;8.45;;;18.70;99.90;;;;;;4973952;28;20483;-49
2022/09/24 12:50:00;;;;;;;10.50;8.25;;;18.60;99.90;;;;;;4973167;28;20030;-47
2022/09/24 12:52:31;;;;;;;13.27;7.75;;;18.60;99.90;;;;;;4973748;28;20031;-49
2022/09/24 12:55:01;;;;;;;10.00;8.40;;;18.60;99.90;;;;;;4973866;28;20506;-44
2022/09/24 12:57:37;;;;;;;10.88;8.32;;;18.50;99.90;;;;;;4973817;28;20035;-46
2022/09/24 13:00:44;;;;;;;12.43;8.32;;;18.50;99.90;;;;;;4973704;28;20034;-46
2022/09/24 13:03:33;;;;;;;14.13;8.93;;;18.40;99.90;;;;;;4969485;28;20035;-45
2022/09/24 13:06:00;;;;;;;12.95;9.15;;;18.50;99.90;;;;;;4973638;28;20031;-45
2022/09/24 13:08:38;;;;;;;13.23;8.35;;;18.60;99.90;;;;;;4973840;28;20505;-47
2022/09/24 13:11:30;;;;;;;13.93;8.98;;;18.70;99.90;;;;;;4973256;28;20051;-50
2022/09/24 13:13:59;;;;;;;15.98;9.45;;;18.70;99.90;;;;;;4973536;28;20033;-44
2022/09/24 13:16:25;;;;;;;11.48;8.10;;;18.80;99.90;;;;;;4972186;28;20045;-47